createdAt,value
2022-11-18T00:01:35.483Z,2.50
2022-11-18T00:04:02.428Z,2.50
2022-11-18T00:06:29.948Z,2.50
2022-11-18T00:08:58.850Z,2.28
2022-11-18T00:11:45.299Z,2.60
2022-11-18T00:14:20.807Z,2.08
2022-11-18T00:16:51.398Z,2.63
2022-11-18T00:19:22.436Z,2.17
2022-11-18T00:21:50.163Z,2.53
2022-11-18T00:24:16.995Z,2.55
2022-11-18T00:26:43.766Z,2.30
2022-11-18T00:29:10.986Z,2.33
2022-11-18T00:31:38.228Z,2.33
2022-11-18T00:34:05.714Z,2.65
2022-11-18T00:36:32.373Z,2.95
2022-11-18T00:38:59.091Z,2.72
2022-11-18T00:41:45.710Z,2.75
2022-11-18T00:44:12.368Z,3.13
2022-11-18T00:46:38.982Z,3.08
2022-11-18T00:49:05.700Z,2.85
2022-11-18T00:51:32.318Z,2.78
2022-11-18T00:53:58.970Z,2.65
2022-11-18T00:56:25.595Z,2.65
2022-11-18T00:58:52.265Z,2.42
2022-11-18T01:01:18.912Z,2.88
2022-11-18T01:03:46.275Z,2.58
2022-11-18T01:06:12.903Z,2.88
2022-11-18T01:08:39.508Z,2.60
2022-11-18T01:11:25.721Z,2.58
2022-11-18T01:13:53.126Z,2.75
2022-11-18T01:16:21.565Z,3.03
2022-11-18T01:18:48.571Z,2.33
2022-11-18T01:21:15.264Z,2.47
2022-11-18T01:23:41.934Z,2.42
2022-11-18T01:26:12.107Z,3.30
2022-11-18T01:28:39.031Z,2.85
2022-11-18T01:31:07.658Z,2.65
2022-11-18T01:33:34.386Z,3.03
2022-11-18T01:36:01.100Z,2.60
2022-11-18T01:38:28.468Z,2.08
2022-11-18T01:40:56.000Z,2.30
2022-11-18T01:43:23.625Z,2.35
2022-11-18T01:45:53.777Z,2.65
2022-11-18T01:48:31.755Z,3.75
2022-11-18T01:51:04.533Z,3.40
2022-11-18T01:53:38.255Z,3.67
2022-11-18T01:56:12.144Z,3.78
2022-11-18T01:58:49.697Z,4.00
2022-11-18T02:01:16.469Z,3.60
2022-11-18T02:03:44.951Z,3.80
2022-11-18T02:06:11.756Z,4.20
2022-11-18T02:08:40.123Z,4.55
2022-11-18T02:11:30.899Z,3.90
2022-11-18T02:13:59.315Z,4.10
2022-11-18T02:16:39.950Z,3.53
2022-11-18T02:19:38.861Z,4.50
2022-11-18T02:22:36.631Z,3.72
2022-11-18T02:25:37.570Z,4.15
2022-11-18T02:28:37.120Z,3.88
2022-11-18T02:31:30.422Z,3.70
2022-11-18T02:34:03.768Z,3.33
2022-11-18T02:36:45.554Z,3.70
2022-11-18T02:39:20.689Z,4.05
2022-11-18T02:41:49.255Z,3.67
2022-11-18T02:44:17.581Z,3.60
2022-11-18T02:46:48.299Z,3.20
2022-11-18T02:49:24.280Z,3.67
2022-11-18T02:51:52.381Z,4.07
2022-11-18T02:54:20.266Z,3.50
2022-11-18T02:56:48.751Z,3.78
2022-11-18T02:59:19.322Z,3.47
2022-11-18T03:01:46.623Z,3.63
2022-11-18T03:04:15.573Z,4.00
2022-11-18T03:06:49.321Z,3.63
2022-11-18T03:09:27.441Z,4.05
2022-11-18T03:12:15.728Z,3.90
2022-11-18T03:14:52.460Z,3.70
2022-11-18T03:17:25.841Z,3.72
2022-11-18T03:20:04.536Z,3.78
2022-11-18T03:22:45.692Z,4.03
2022-11-18T03:25:36.625Z,3.92
2022-11-18T03:28:17.203Z,4.13
2022-11-18T03:30:55.009Z,3.70
2022-11-18T03:33:28.635Z,4.15
2022-11-18T03:35:57.450Z,4.25
2022-11-18T03:38:30.517Z,4.30
2022-11-18T03:41:01.488Z,4.45
2022-11-18T03:43:35.139Z,4.60
2022-11-18T03:46:17.143Z,4.28
2022-11-18T03:48:55.143Z,4.60
2022-11-18T03:51:50.047Z,4.07
2022-11-18T03:54:24.440Z,4.38
2022-11-18T03:57:02.449Z,5.03
2022-11-18T04:02:24.769Z,4.45
2022-11-18T04:04:54.560Z,5.03
2022-11-18T04:07:33.118Z,4.40
2022-11-18T04:10:03.633Z,5.18
2022-11-18T04:12:35.290Z,5.20
2022-11-18T04:15:02.065Z,4.68
2022-11-18T04:17:29.058Z,4.85
2022-11-18T04:19:56.226Z,5.63
2022-11-18T04:22:23.166Z,4.32
2022-11-18T04:24:49.850Z,4.88
2022-11-18T04:27:16.546Z,5.15
2022-11-18T04:29:43.183Z,5.63
2022-11-18T04:32:09.837Z,5.18
2022-11-18T04:34:36.492Z,5.43
2022-11-18T04:37:03.340Z,4.85
2022-11-18T04:39:30.058Z,5.65
2022-11-18T04:41:56.820Z,5.32
2022-11-18T04:44:29.173Z,5.78
2022-11-18T04:46:57.402Z,5.50
2022-11-18T04:49:25.208Z,5.57
2022-11-18T04:51:52.792Z,4.93
2022-11-18T04:54:19.541Z,5.75
2022-11-18T04:56:49.353Z,5.90
2022-11-18T04:59:19.605Z,5.65
2022-11-18T05:01:47.164Z,5.28
2022-11-18T05:04:16.277Z,5.13
2022-11-18T05:06:43.159Z,5.40
2022-11-18T05:09:10.358Z,5.63
2022-11-18T05:11:55.810Z,6.18
2022-11-18T05:14:24.853Z,5.68
2022-11-18T05:16:51.468Z,5.63
2022-11-18T05:19:18.363Z,6.00
2022-11-18T05:21:45.238Z,5.18
2022-11-18T05:24:12.024Z,6.05
2022-11-18T05:26:38.704Z,5.78
2022-11-18T05:29:05.399Z,6.13
2022-11-18T05:31:32.151Z,5.57
2022-11-18T05:33:58.977Z,5.50
2022-11-18T05:36:26.180Z,5.72
2022-11-18T05:38:52.796Z,5.55
2022-11-18T05:41:38.144Z,6.50
2022-11-18T05:44:05.132Z,5.88
2022-11-18T05:46:32.320Z,5.70
2022-11-18T05:48:59.009Z,5.68
2022-11-18T05:51:25.922Z,6.30
2022-11-18T05:53:54.488Z,6.30
2022-11-18T05:56:27.079Z,6.72
2022-11-18T05:58:53.744Z,5.97
2022-11-18T06:01:29.684Z,5.85
2022-11-18T06:03:57.323Z,6.68
2022-11-18T06:06:24.677Z,6.55
2022-11-18T06:08:54.368Z,6.95
2022-11-18T06:11:21.704Z,6.28
2022-11-18T06:13:57.316Z,5.63
2022-11-18T06:16:28.462Z,5.65
2022-11-18T06:18:55.335Z,6.30
2022-11-18T06:21:22.421Z,6.65
2022-11-18T06:23:49.357Z,5.97
2022-11-18T06:26:16.915Z,6.05
2022-11-18T06:28:46.674Z,5.80
2022-11-18T06:31:13.363Z,6.32
2022-11-18T06:33:40.007Z,5.70
2022-11-18T06:36:07.009Z,5.47
2022-11-18T06:38:33.673Z,5.95
2022-11-18T06:41:01.352Z,6.10
2022-11-18T06:43:41.610Z,5.88
2022-11-18T06:46:33.753Z,6.03
2022-11-18T06:49:01.644Z,6.07
2022-11-18T06:51:28.803Z,6.00
2022-11-18T06:53:55.549Z,6.38
2022-11-18T06:56:23.066Z,6.50
2022-11-18T06:58:53.948Z,6.35
2022-11-18T07:01:22.977Z,6.93
2022-11-18T07:03:49.838Z,6.93
2022-11-18T07:06:18.866Z,6.80
2022-11-18T07:08:45.628Z,7.45
2022-11-18T07:11:15.889Z,7.05
2022-11-18T07:13:44.015Z,7.60
2022-11-18T07:16:19.620Z,7.63
2022-11-18T07:18:48.088Z,7.13
2022-11-18T07:21:19.490Z,7.78
2022-11-18T07:23:46.588Z,7.22
2022-11-18T07:26:13.839Z,8.25
2022-11-18T07:28:41.195Z,7.78
2022-11-18T07:31:10.456Z,8.05
2022-11-18T07:33:38.283Z,8.05
2022-11-18T07:36:09.713Z,8.32
2022-11-18T07:38:36.613Z,8.57
2022-11-18T07:41:14.276Z,8.65
2022-11-18T07:43:41.599Z,8.45
2022-11-18T07:46:10.493Z,8.07
2022-11-18T07:48:37.430Z,8.10
2022-11-18T07:51:04.280Z,7.68
2022-11-18T07:53:31.896Z,8.38
2022-11-18T07:55:58.655Z,8.10
2022-11-18T07:58:25.325Z,9.40
2022-11-18T08:00:51.998Z,8.40
2022-11-18T08:03:18.681Z,9.32
2022-11-18T08:05:45.408Z,8.82
2022-11-18T08:08:12.117Z,9.07
2022-11-18T08:10:38.788Z,8.82
2022-11-18T08:13:05.373Z,8.75
2022-11-18T08:15:32.025Z,8.23
2022-11-18T08:17:58.671Z,9.02
2022-11-18T08:20:27.153Z,8.45
2022-11-18T08:22:53.797Z,7.88
2022-11-18T08:25:20.435Z,8.13
2022-11-18T08:27:47.130Z,9.38
2022-11-18T08:30:13.980Z,8.48
2022-11-18T08:32:40.565Z,7.95
2022-11-18T08:35:10.999Z,9.45
2022-11-18T08:37:38.352Z,8.93
2022-11-18T08:40:05.634Z,9.18
2022-11-18T08:42:34.413Z,8.73
2022-11-18T08:45:01.424Z,8.63
2022-11-18T08:47:28.056Z,8.80
2022-11-18T08:49:54.714Z,8.55
2022-11-18T08:52:21.366Z,8.27
2022-11-18T08:54:47.987Z,8.35
2022-11-18T08:57:14.613Z,8.20
2022-11-18T08:59:41.309Z,9.73
2022-11-18T09:02:14.879Z,8.80
2022-11-18T09:04:41.671Z,8.18
2022-11-18T09:07:08.458Z,8.13
2022-11-18T09:09:35.486Z,8.57
2022-11-18T09:12:02.224Z,8.60
2022-11-18T09:17:15.696Z,8.55
2022-11-18T09:19:49.529Z,9.73
2022-11-18T09:22:16.364Z,7.63
2022-11-18T09:24:43.465Z,8.20
2022-11-18T09:27:16.439Z,7.93
2022-11-18T09:29:43.595Z,7.07
2022-11-18T09:32:10.287Z,7.97
2022-11-18T09:34:37.041Z,8.52
2022-11-18T09:37:06.366Z,8.38
2022-11-18T09:39:37.175Z,8.48
2022-11-18T09:42:25.267Z,7.78
2022-11-18T09:45:24.342Z,8.02
2022-11-18T09:47:51.907Z,9.13
2022-11-18T09:53:19.376Z,8.90
2022-11-18T09:55:47.506Z,9.48
2022-11-18T09:58:22.338Z,9.40
2022-11-18T10:00:49.130Z,8.68
2022-11-18T10:03:29.342Z,8.32
2022-11-18T10:06:03.588Z,8.82
2022-11-18T10:08:40.192Z,9.10
2022-11-18T10:11:07.741Z,7.97
2022-11-18T10:13:45.161Z,8.52
2022-11-18T10:16:37.203Z,9.00
2022-11-18T10:19:44.644Z,8.90
2022-11-18T10:22:33.830Z,8.55
2022-11-18T10:25:01.143Z,8.63
2022-11-18T10:27:38.751Z,8.57
2022-11-18T10:30:19.703Z,8.82
2022-11-18T10:33:04.476Z,8.85
2022-11-18T10:35:38.183Z,9.00
2022-11-18T10:38:22.934Z,8.57
2022-11-18T10:40:52.830Z,9.15
2022-11-18T10:43:51.900Z,8.50
2022-11-18T10:46:39.116Z,9.20
2022-11-18T10:49:08.994Z,9.40
2022-11-18T10:52:04.404Z,8.90
2022-11-18T10:54:31.233Z,9.20
2022-11-18T10:57:13.417Z,8.63
2022-11-18T10:59:51.972Z,9.43
2022-11-18T11:02:31.099Z,9.25
2022-11-18T11:05:01.449Z,9.38
2022-11-18T11:07:32.388Z,9.27
2022-11-18T11:10:06.962Z,9.38
2022-11-18T11:12:35.976Z,8.73
2022-11-18T11:15:16.501Z,9.57
2022-11-18T11:18:10.363Z,10.35
2022-11-18T11:20:37.017Z,10.90
2022-11-18T11:23:12.679Z,10.35
2022-11-18T11:28:51.337Z,11.00
2022-11-18T11:31:23.880Z,10.48
2022-11-18T11:34:08.733Z,9.88
2022-11-18T11:36:59.066Z,9.98
2022-11-18T11:39:40.868Z,10.77
2022-11-18T11:42:23.663Z,10.25
2022-11-18T11:45:17.642Z,10.43
2022-11-18T11:48:13.236Z,10.40
2022-11-18T11:51:03.332Z,9.98
2022-11-18T11:53:41.584Z,9.70
2022-11-18T11:56:39.195Z,9.52
2022-11-18T11:59:14.860Z,9.65
2022-11-18T12:01:47.352Z,9.65
2022-11-18T12:04:41.661Z,8.38
2022-11-18T12:07:16.779Z,8.05
2022-11-18T12:10:08.004Z,8.85
2022-11-18T12:12:48.756Z,8.65
2022-11-18T12:15:40.458Z,8.27
2022-11-18T12:18:24.864Z,7.75
2022-11-18T12:20:53.855Z,7.30
2022-11-18T12:23:26.630Z,7.22
2022-11-18T12:25:56.585Z,8.02
2022-11-18T12:28:36.187Z,8.48
2022-11-18T12:31:18.151Z,7.40
2022-11-18T12:33:56.389Z,7.55
2022-11-18T12:36:35.134Z,7.15
2022-11-18T12:39:23.895Z,6.50
2022-11-18T12:42:09.016Z,6.50
2022-11-18T12:44:37.232Z,6.43
2022-11-18T12:47:11.051Z,6.03
2022-11-18T12:49:37.650Z,6.07
2022-11-18T12:52:47.270Z,6.30
2022-11-18T12:55:18.789Z,5.63
2022-11-18T12:57:45.557Z,6.47
2022-11-18T13:00:24.128Z,6.57
2022-11-18T13:02:55.548Z,5.80
2022-11-18T13:05:30.835Z,6.13
2022-11-18T13:08:13.607Z,5.88
2022-11-18T13:10:43.202Z,6.80
2022-11-18T13:13:30.273Z,6.63
2022-11-18T13:16:38.331Z,5.93
2022-11-18T13:19:05.617Z,6.07
2022-11-18T13:21:50.772Z,5.80
2022-11-18T13:24:20.902Z,5.88
2022-11-18T13:26:53.148Z,6.70
2022-11-18T13:29:33.027Z,5.60
2022-11-18T13:32:21.012Z,6.05
2022-11-18T13:34:56.468Z,6.70
2022-11-18T13:37:28.546Z,5.93
2022-11-18T13:39:55.651Z,7.32
2022-11-18T13:42:26.015Z,6.50
2022-11-18T13:45:01.032Z,6.68
2022-11-18T13:47:40.096Z,6.65
2022-11-18T13:50:31.344Z,7.20
2022-11-18T13:53:44.445Z,7.75
2022-11-18T13:56:34.422Z,7.55
2022-11-18T13:59:16.738Z,7.03
2022-11-18T14:01:44.767Z,7.40
2022-11-18T14:04:27.419Z,8.07
2022-11-18T14:07:14.306Z,7.43
2022-11-18T14:09:56.766Z,6.55
2022-11-18T14:12:25.952Z,7.85
2022-11-18T14:14:52.607Z,7.15
2022-11-18T14:17:27.955Z,7.40
2022-11-18T14:19:57.588Z,7.18
2022-11-18T14:22:31.885Z,7.05
2022-11-18T14:25:15.370Z,7.22
2022-11-18T14:27:55.653Z,7.82
2022-11-18T14:30:41.617Z,7.40
2022-11-18T14:33:20.313Z,7.65
2022-11-18T14:36:10.437Z,6.57
2022-11-18T14:39:04.479Z,7.53
2022-11-18T14:41:46.880Z,7.28
2022-11-18T14:44:13.987Z,7.00
2022-11-18T14:46:43.327Z,7.30
2022-11-18T14:49:19.245Z,7.38
2022-11-18T14:51:46.829Z,7.28
2022-11-18T14:54:17.260Z,7.07
2022-11-18T14:56:49.300Z,6.85
2022-11-18T14:59:17.943Z,6.55
2022-11-18T15:01:45.263Z,7.25
2022-11-18T15:04:14.188Z,6.47
2022-11-18T15:06:40.845Z,6.45
2022-11-18T15:09:08.044Z,6.70
2022-11-18T15:11:35.199Z,6.03
2022-11-18T15:14:02.738Z,5.22
2022-11-18T15:16:32.258Z,5.47
2022-11-18T15:19:01.693Z,5.68
2022-11-18T15:21:28.325Z,5.25
2022-11-18T15:23:55.054Z,7.05
2022-11-18T15:26:29.808Z,9.75
2022-11-18T15:28:57.716Z,11.93
2022-11-18T15:31:25.625Z,12.13
2022-11-18T15:33:52.703Z,10.18
2022-11-18T15:36:21.691Z,9.98
2022-11-18T15:38:49.101Z,10.98
2022-11-18T15:41:25.180Z,9.05
2022-11-18T15:43:53.486Z,10.02
2022-11-18T15:46:22.535Z,8.40
2022-11-18T15:48:52.453Z,8.95
2022-11-18T15:51:19.405Z,9.52
2022-11-18T15:53:46.046Z,7.50
2022-11-18T15:56:28.980Z,8.23
2022-11-18T15:58:59.615Z,7.82
2022-11-18T16:01:28.836Z,8.98
2022-11-18T16:03:55.700Z,8.95
2022-11-18T16:06:23.044Z,10.43
2022-11-18T16:08:53.213Z,10.05
2022-11-18T16:11:41.078Z,8.90
2022-11-18T16:14:10.535Z,9.48
2022-11-18T16:16:38.635Z,9.98
2022-11-18T16:19:07.884Z,9.95
2022-11-18T16:21:37.241Z,9.68
2022-11-18T16:24:05.990Z,9.30
2022-11-18T16:26:33.515Z,8.82
2022-11-18T16:29:01.014Z,7.15
2022-11-18T16:31:39.983Z,8.20
2022-11-18T16:34:14.186Z,6.60
2022-11-18T16:36:42.925Z,7.20
2022-11-18T16:39:13.784Z,7.20
2022-11-18T16:41:41.732Z,7.22
2022-11-18T16:44:11.020Z,7.63
2022-11-18T16:46:40.480Z,7.93
2022-11-18T16:49:10.733Z,6.07
2022-11-18T16:51:37.362Z,10.65
2022-11-18T16:54:07.004Z,8.05
2022-11-18T16:56:35.535Z,7.47
2022-11-18T16:59:10.764Z,5.72
2022-11-18T17:01:37.609Z,4.70
2022-11-18T17:04:04.431Z,5.28
2022-11-18T17:06:31.763Z,5.30
2022-11-18T17:09:00.427Z,6.20
2022-11-18T17:11:27.526Z,5.78
2022-11-18T17:13:58.011Z,5.38
2022-11-18T17:16:25.981Z,4.38
2022-11-18T17:18:56.967Z,5.97
2022-11-18T17:21:24.763Z,5.18
2022-11-18T17:23:51.611Z,5.38
2022-11-18T17:26:21.379Z,5.05
2022-11-18T17:28:48.344Z,5.53
2022-11-18T17:31:18.191Z,4.63
2022-11-18T17:33:45.338Z,4.28
2022-11-18T17:36:14.474Z,5.13
2022-11-18T17:38:43.276Z,4.45
2022-11-18T17:41:31.556Z,5.10
2022-11-18T17:43:58.611Z,4.18
2022-11-18T17:46:25.446Z,4.25
2022-11-18T17:48:56.596Z,3.90
2022-11-18T17:51:24.634Z,4.50
2022-11-18T17:53:52.295Z,4.70
2022-11-18T17:56:20.021Z,3.80
2022-11-18T17:58:49.237Z,4.25
2022-11-18T18:01:17.730Z,4.68
2022-11-18T18:03:44.953Z,4.50
2022-11-18T18:06:12.572Z,4.80
2022-11-18T18:08:39.450Z,4.88
2022-11-18T18:11:12.660Z,5.22
2022-11-18T18:13:58.970Z,5.07
2022-11-18T18:16:26.404Z,5.30
2022-11-18T18:18:53.291Z,5.57
2022-11-18T18:21:20.262Z,5.35
2022-11-18T18:23:47.102Z,6.15
2022-11-18T18:26:13.853Z,5.43
2022-11-18T18:28:40.558Z,5.80
2022-11-18T18:31:09.449Z,6.22
2022-11-18T18:33:37.184Z,5.53
2022-11-18T18:36:06.167Z,5.63
2022-11-18T18:38:34.537Z,5.03
2022-11-18T18:41:03.255Z,5.53
2022-11-18T18:43:29.922Z,6.90
2022-11-18T18:46:19.129Z,6.75
2022-11-18T18:48:45.967Z,6.93
2022-11-18T18:51:12.976Z,6.93
2022-11-18T18:53:39.851Z,6.93
2022-11-18T18:56:06.955Z,6.28
2022-11-18T18:58:33.965Z,7.03
2022-11-18T19:01:11.027Z,7.85
2022-11-18T19:03:38.470Z,8.43
2022-11-18T19:09:11.191Z,9.30
2022-11-18T19:11:56.922Z,8.15
2022-11-18T19:14:24.661Z,13.23
2022-11-18T19:16:52.264Z,8.93
2022-11-18T19:19:43.322Z,9.60
2022-11-18T19:22:11.787Z,8.35
2022-11-18T19:24:54.693Z,8.57
2022-11-18T19:27:21.833Z,9.23
2022-11-18T19:29:48.550Z,9.57
2022-11-18T19:32:15.582Z,8.15
2022-11-18T19:34:42.225Z,7.53
2022-11-18T19:37:08.999Z,7.72
2022-11-18T19:39:35.675Z,8.20
2022-11-18T19:42:02.339Z,8.10
2022-11-18T19:44:29.129Z,7.55
2022-11-18T19:46:55.804Z,8.45
2022-11-18T19:49:22.911Z,7.95
2022-11-18T19:51:49.687Z,9.15
2022-11-18T19:54:16.403Z,9.23
2022-11-18T19:56:43.169Z,11.80
2022-11-18T19:59:12.359Z,9.07
2022-11-18T20:01:39.611Z,8.95
2022-11-18T20:04:06.411Z,8.90
2022-11-18T20:06:35.389Z,10.30
2022-11-18T20:09:03.169Z,8.82
2022-11-18T20:11:29.828Z,9.43
2022-11-18T20:13:56.557Z,10.38
2022-11-18T20:16:25.125Z,9.10
2022-11-18T20:19:01.993Z,9.88
2022-11-18T20:21:31.135Z,9.48
2022-11-18T20:24:02.995Z,8.70
2022-11-18T20:26:34.950Z,9.35
2022-11-18T20:29:01.702Z,10.00
2022-11-18T20:31:29.275Z,10.50
2022-11-18T20:33:57.000Z,10.23
2022-11-18T20:36:31.698Z,10.30
2022-11-18T20:39:00.708Z,9.75
2022-11-18T20:41:30.207Z,9.80
2022-11-18T20:43:56.903Z,11.00
2022-11-18T20:46:23.562Z,10.95
2022-11-18T20:48:50.435Z,9.98
2022-11-18T20:51:18.664Z,11.07
2022-11-18T20:53:45.487Z,9.10
2022-11-18T20:56:40.395Z,11.13
2022-11-18T20:59:07.025Z,11.00
2022-11-18T21:01:33.850Z,10.35
2022-11-18T21:04:01.589Z,9.88
2022-11-18T21:06:29.995Z,10.40
2022-11-18T21:08:59.352Z,11.23
2022-11-18T21:11:26.673Z,10.27
2022-11-18T21:14:12.335Z,10.88
2022-11-18T21:16:41.105Z,10.68
2022-11-18T21:19:08.051Z,11.30
2022-11-18T21:21:48.947Z,11.27
2022-11-18T21:24:18.435Z,10.43
2022-11-18T21:26:47.116Z,10.43
2022-11-18T21:29:15.741Z,11.27
2022-11-18T21:31:43.897Z,9.95
2022-11-18T21:34:11.330Z,10.45
2022-11-18T21:36:44.319Z,11.15
2022-11-18T21:39:13.963Z,10.80
2022-11-18T21:41:40.960Z,10.95
2022-11-18T21:44:10.104Z,11.48
2022-11-18T21:46:38.827Z,10.98
2022-11-18T21:49:06.084Z,10.85
2022-11-18T21:51:33.769Z,11.98
2022-11-18T21:54:01.154Z,11.27
2022-11-18T21:56:30.623Z,11.82
2022-11-18T21:58:59.171Z,11.07
2022-11-18T22:01:31.238Z,12.23
2022-11-18T22:04:00.869Z,10.60
2022-11-18T22:06:33.243Z,11.00
2022-11-18T22:09:01.339Z,10.43
2022-11-18T22:11:28.378Z,11.70
2022-11-18T22:13:55.586Z,11.02
2022-11-18T22:16:24.559Z,11.05
2022-11-18T22:18:58.152Z,11.85
2022-11-18T22:21:26.981Z,11.52
2022-11-18T22:23:58.287Z,10.95
2022-11-18T22:26:25.050Z,11.27
2022-11-18T22:28:57.012Z,11.52
2022-11-18T22:31:25.727Z,11.98
2022-11-18T22:33:52.864Z,12.10
2022-11-18T22:36:21.560Z,12.02
2022-11-18T22:38:48.825Z,12.95
2022-11-18T22:41:43.507Z,11.82
2022-11-18T22:44:11.652Z,12.60
2022-11-18T22:46:39.504Z,13.63
2022-11-18T22:49:07.543Z,12.40
2022-11-18T22:51:34.793Z,12.85
2022-11-18T22:54:37.794Z,13.13
2022-11-18T22:56:48.134Z,13.93
2022-11-18T22:59:14.763Z,14.30
2022-11-18T23:01:41.467Z,14.75
2022-11-18T23:04:08.179Z,14.85
2022-11-18T23:06:35.163Z,14.02
2022-11-18T23:09:02.234Z,14.75
2022-11-18T23:11:47.691Z,13.65
2022-11-18T23:14:14.493Z,14.82
2022-11-18T23:16:42.617Z,14.20
2022-11-18T23:19:12.110Z,14.70
2022-11-18T23:21:39.123Z,14.50
2022-11-18T23:24:06.331Z,15.27
2022-11-18T23:26:33.198Z,15.15
2022-11-18T23:28:59.835Z,14.77
2022-11-18T23:31:27.627Z,15.05
2022-11-18T23:33:56.088Z,15.13
2022-11-18T23:36:23.851Z,16.25
2022-11-18T23:38:52.082Z,16.45
2022-11-18T23:41:19.665Z,16.02
2022-11-18T23:43:48.221Z,15.73
2022-11-18T23:46:16.350Z,15.23
2022-11-18T23:48:43.506Z,15.85
2022-11-18T23:51:11.312Z,16.80
2022-11-18T23:53:38.938Z,16.48
2022-11-18T23:56:15.064Z,17.33
2022-11-18T23:58:43.713Z,17.73
